• Join FlightAware (Why Join?)
  • Login
  • US Flag 
04:11AM EDT


 

Airport Tracker/Info


-or-


 

Live Flight TrackerFlight Track Log ✈ SWA59 ✈ 13-Dec-2013 ✈ KLAS - KMAF

Flight Track Log - Related Links

Times and Time Zones

All times are in EST time to prevent confusion due to time zone crossing. See the SWA59 flight status page for this flight to view local times or setup timezone preferences in your user account.

Time Position Orientation Groundspeed Altitude Reporting Facility
EST Latitude Longitude Course Direction KTS MPH feet Rate Location/Type
06:59PM 36.0753 -115.1739 256° West 144 166 3,200  Level Los Angeles Center
07:00PM 36.0575 -115.2619 256° West 239 275 6,000 2,220 Climbing Los Angeles Center
07:00PM 36.0436 -115.2681 200° South 262 302 6,400 2,820 Climbing Los Angeles Center
07:01PM 35.9667 -115.2958 196° South 292 336 9,500 2,400 Climbing Los Angeles Center
07:02PM 35.8775 -115.2567 160° South 329 379 11,400 2,160 Climbing Los Angeles Center
07:03PM 35.8394 -115.1486 113° Southeast 349 402 14,100 2,460 Climbing Los Angeles Center
07:04PM 35.8275 -115.0197 96° East 357 411 16,600 2,340 Climbing Los Angeles Center
07:05PM 35.8389 -114.8889 84° East 364 419 19,000 2,100 Climbing Los Angeles Center
07:06PM 35.8483 -114.7636 85° East 366 421 21,000 960 Climbing Los Angeles Center
07:07PM 35.8606 -114.6308 83° East 382 440 21,000 1,080 Level Los Angeles Center
07:08PM 35.8728 -114.4931 84° East 400 460 23,300 1,860 Climbing Los Angeles Center
07:09PM 35.8850 -114.3575 84° East 400 460 24,900 1,680 Climbing Los Angeles Center
07:10PM 35.8972 -114.2192 84° East 403 464 26,800 1,620 Climbing Los Angeles Center
07:11PM 35.9103 -114.0525 84° East 407 468 28,300 1,260 Climbing Los Angeles Center
07:13PM 35.9206 -113.9047 85° East 423 487 29,500 960 Climbing Los Angeles Center
07:14PM 35.8925 -113.7503 103° East 455 524 30,400 1,080 Climbing Los Angeles Center
07:15PM 35.8606 -113.5914 104° East 466 536 31,800 960 Climbing Los Angeles Center
07:16PM 35.8250 -113.4342 106° East 472 543 32,400 720 Climbing Los Angeles Center
07:17PM 35.7925 -113.2708 104° East 485 558 33,400 1,080 Climbing Los Angeles Center
07:18PM 35.7592 -113.1106 104° East 482 555 34,700 720 Climbing Los Angeles Center
07:19PM 35.7133 -112.9147 106° East 494 568 35,000 120 Climbing Los Angeles Center
07:20PM 35.6658 -112.7594 111° Southeast 502 578 35,000  Level Los Angeles Center
07:21PM 35.6164 -112.5911 110° East 498 573 35,000  Level Los Angeles Center
07:22PM 35.5678 -112.4289 110° East 504 580 35,000  Level Los Angeles Center
07:23PM 35.5189 -112.2681 110° East 502 578 35,000  Level Los Angeles Center
07:24PM 35.4906 -112.1000 102° East 504 580 35,000  Level Albuquerque Center
07:25PM 35.4669 -111.9319 100° East 502 578 35,000  Level Albuquerque Center
07:26PM 35.4383 -111.7317 100° East 500 575 35,000  Level Los Angeles Center
07:27PM 35.4156 -111.5986 102° East 498 573 35,000  Level Albuquerque Center
07:28PM 35.3886 -111.4200 100° East 496 571 35,000  Level Albuquerque Center
07:29PM 35.3603 -111.2353 101° East 496 571 35,000  Level Albuquerque Center
07:30PM 35.3369 -111.0803 100° East 490 564 35,000  Level Albuquerque Center
07:31PM 35.3125 -110.9239 101° East 488 562 35,000  Level Albuquerque Center
07:32PM 35.2833 -110.7408 101° East 490 564 35,000  Level Albuquerque Center
07:33PM 35.2594 -110.5853 101° East 489 563 35,000  Level Albuquerque Center
07:34PM 35.2311 -110.4042 101° East 487 560 35,000  Level Albuquerque Center
07:35PM 35.2061 -110.2492 101° East 487 560 35,000  Level Albuquerque Center
07:36PM 35.1775 -110.0683 101° East 487 560 35,000  Level Albuquerque Center
07:37PM 35.1528 -109.9136 101° East 486 559 35,000  Level Albuquerque Center
07:38PM 35.1264 -109.7569 102° East 488 562 35,000  Level Albuquerque Center
07:39PM 35.0936 -109.5703 102° East 497 572 35,000  Level Albuquerque Center
07:40PM 35.0669 -109.4122 102° East 498 573 35,000  Level Albuquerque Center
07:41PM 35.0364 -109.2294 101° East 495 570 35,000  Level Albuquerque Center
07:42PM 35.0083 -109.0733 102° East 495 570 35,000  Level Albuquerque Center
07:43PM 34.9814 -108.9164 102° East 495 570 35,000  Level Albuquerque Center
07:44PM 34.9486 -108.7308 102° East 498 573 35,000  Level Albuquerque Center
07:45PM 34.9217 -108.5706 102° East 502 578 35,000  Level Albuquerque Center
07:46PM 34.8875 -108.3844 103° East 505 581 35,000  Level Albuquerque Center
07:47PM 34.8581 -108.2247 103° East 506 582 35,000  Level Albuquerque Center
07:48PM 34.8281 -108.0575 102° East 511 588 35,000  Level Albuquerque Center
07:49PM 34.7964 -107.8856 103° East 518 596 35,000  Level Albuquerque Center
07:50PM 34.7650 -107.7125 102° East 523 602 35,000  Level Albuquerque Center
07:51PM 34.7253 -107.5072 103° East 529 609 35,000  Level Albuquerque Center
07:52PM 34.6917 -107.3306 103° East 535 616 35,000  Level Albuquerque Center
07:53PM 34.6597 -107.1564 103° East 531 611 35,000  Level Albuquerque Center
07:55PM 34.6247 -106.9711 103° East 528 608 35,000  Level Albuquerque Center
07:56PM 34.5942 -106.8122 103° East 525 604 35,000  Level Albuquerque Center
07:57PM 34.5569 -106.6275 104° East 528 608 35,000  Level Albuquerque Center
07:58PM 34.5258 -106.4692 103° East 530 610 35,000  Level Albuquerque Center
07:59PM 34.4925 -106.2967 103° East 530 610 35,000  Level Albuquerque Center
08:00PM 34.4494 -106.0878 104° East 527 606 35,000  Level Albuquerque Center
08:01PM 34.4150 -105.9150 104° East 525 604 35,000  Level Albuquerque Center
08:02PM 34.3797 -105.7406 104° East 528 608 35,000  Level Albuquerque Center
08:03PM 34.3083 -105.5897 120° Southeast 519 597 35,000  Level Albuquerque Center
08:04PM 34.2189 -105.4553 129° Southeast 511 588 35,000  Level Albuquerque Center
08:05PM 34.1297 -105.3231 129° Southeast 506 582 35,000  Level Albuquerque Center
08:06PM 34.0267 -105.1689 129° Southeast 513 590 35,000  Level Albuquerque Center
08:07PM 33.9350 -105.0350 130° Southeast 518 596 35,000  Level Albuquerque Center
08:08PM 33.8436 -104.8986 129° Southeast 523 602 35,000  Level Albuquerque Center
08:09PM 33.7436 -104.7525 129° Southeast 526 605 35,000  Level Albuquerque Center
08:10PM 33.6497 -104.6156 129° Southeast 528 608 35,000  Level Albuquerque Center
08:11PM 33.5544 -104.4767 129° Southeast 535 616 35,000  Level Albuquerque Center
08:12PM 33.4722 -104.3578 130° Southeast 538 619 35,000  Level Albuquerque Center
08:13PM 33.3572 -104.1889 129° Southeast 533 613 35,000  Level Albuquerque Center
08:14PM 33.2631 -104.0522 129° Southeast 531 611 35,000  Level Albuquerque Center
08:15PM 33.1697 -103.9169 129° Southeast 528 608 35,000  Level Albuquerque Center
08:16PM 33.0694 -103.7725 130° Southeast 524 603 35,000 -1,500 Level Albuquerque Center
08:17PM 32.9911 -103.6589 129° Southeast 526 605 32,000 -2,940 Descending Albuquerque Center
08:18PM 32.8942 -103.5231 130° Southeast 536 617 29,000 -3,000 Descending Albuquerque Center
08:19PM 32.7842 -103.3678 130° Southeast 522 601 25,800 -2,160 Descending Albuquerque Center
08:21PM 32.6800 -103.2242 131° Southeast 484 557 23,900 -2,400 Descending Fort Worth Center
08:22PM 32.5867 -103.0931 130° Southeast 447 514 20,200 -3,120 Descending Fort Worth Center
08:23PM 32.5075 -102.9819 130° Southeast 447 514 17,500 -2,340 Descending Fort Worth Center
08:24PM 32.4319 -102.8781 131° Southeast 426 490 15,400 -2,040 Descending Fort Worth Center
08:25PM 32.3631 -102.7792 129° Southeast 399 459 13,300 -1,860 Descending Fort Worth Center
08:26PM 32.3075 -102.6764 123° Southeast 379 436 11,600 -1,620 Descending Fort Worth Center
08:27PM 32.2439 -102.5644 124° Southeast 350 403 10,100 -1,380 Descending Fort Worth Center
08:28PM 32.1964 -102.4783 123° Southeast 322 371 8,800 -960 Descending Fort Worth Center
08:29PM 32.1517 -102.3994 124° Southeast 301 346 8,200 -1,080 Descending Fort Worth Center
08:30PM 32.1061 -102.3186 124° Southeast 264 304 6,600 -1,380 Descending Fort Worth Center
08:31PM 32.0686 -102.2511 123° Southeast 251 289 5,400 -1,140 Descending Fort Worth Center
08:32PM 32.0353 -102.2150 137° Southeast 204 235 4,300 -960 Descending Fort Worth Center
08:33PM 31.9919 -102.2094 174° South 152 175 3,500 -720 Descending Fort Worth Center
08:34PM 31.9519 -102.2042 174° South 143 165 2,900 -300 Descending Fort Worth Center
08:35PM 31.9353 -102.2078 190° South 119 137 2,900  Level Fort Worth Center
08:37PM 31.9333 -102.2000 128° Southeast  Level FlightAware Approximate